createdAt,value
2022-07-27T00:01:14.172Z,1.30
2022-07-27T00:03:44.768Z,1.10
2022-07-27T00:06:12.954Z,1.25
2022-07-27T00:08:41.508Z,1.30
2022-07-27T00:11:10.419Z,1.10
2022-07-27T00:13:38.402Z,1.20
2022-07-27T00:16:06.870Z,1.35
2022-07-27T00:18:34.897Z,1.30
2022-07-27T00:21:04.259Z,1.05
2022-07-27T00:23:32.281Z,1.35
2022-07-27T00:26:00.215Z,1.15
2022-07-27T00:28:28.162Z,1.30
2022-07-27T00:30:56.821Z,1.27
2022-07-27T00:33:24.745Z,1.30
2022-07-27T00:35:52.620Z,1.20
2022-07-27T00:38:21.923Z,1.20
2022-07-27T00:40:49.825Z,1.10
2022-07-27T00:43:17.729Z,1.40
2022-07-27T00:45:45.614Z,1.38
2022-07-27T00:48:13.733Z,1.48
2022-07-27T00:50:43.642Z,1.10
2022-07-27T00:53:14.256Z,1.20
2022-07-27T00:55:43.896Z,1.15
2022-07-27T00:58:12.371Z,1.20
2022-07-27T01:00:40.808Z,1.13
2022-07-27T01:03:09.824Z,1.17
2022-07-27T01:05:43.237Z,1.20
2022-07-27T01:08:14.631Z,1.50
2022-07-27T01:10:45.361Z,1.10
2022-07-27T01:13:13.735Z,1.20
2022-07-27T01:15:43.040Z,1.10
2022-07-27T01:18:13.278Z,1.48
2022-07-27T01:20:41.789Z,0.93
2022-07-27T01:23:11.292Z,1.30
2022-07-27T01:25:42.367Z,1.10
2022-07-27T01:28:10.588Z,1.02
2022-07-27T01:30:38.545Z,1.10
2022-07-27T01:33:08.481Z,1.00
2022-07-27T01:35:37.202Z,1.00
2022-07-27T01:38:05.629Z,1.40
2022-07-27T01:40:36.765Z,1.27
2022-07-27T01:43:05.652Z,1.27
2022-07-27T01:45:33.654Z,1.15
2022-07-27T01:48:01.589Z,1.35
2022-07-27T01:50:30.116Z,1.10
2022-07-27T01:52:58.145Z,1.20
2022-07-27T01:55:26.074Z,1.10
2022-07-27T01:57:55.348Z,1.20
2022-07-27T02:00:23.300Z,1.20
2022-07-27T02:02:51.227Z,1.42
2022-07-27T02:05:19.351Z,1.17
2022-07-27T02:07:47.328Z,1.35
2022-07-27T02:10:15.359Z,1.20
2022-07-27T02:12:42.798Z,1.15
2022-07-27T02:15:15.308Z,0.90
2022-07-27T02:17:45.350Z,1.15
2022-07-27T02:20:15.217Z,1.17
2022-07-27T02:22:43.838Z,1.23
2022-07-27T02:25:13.537Z,1.15
2022-07-27T02:27:42.368Z,0.98
2022-07-27T02:30:13.533Z,1.05
2022-07-27T02:32:44.390Z,1.13
2022-07-27T02:35:18.703Z,1.15
2022-07-27T02:37:48.270Z,1.10
2022-07-27T02:40:18.015Z,1.00
2022-07-27T02:42:46.314Z,0.90
2022-07-27T02:45:16.026Z,1.02
2022-07-27T02:47:44.305Z,0.98
2022-07-27T02:50:12.379Z,1.00
2022-07-27T02:52:40.736Z,0.90
2022-07-27T02:55:09.809Z,0.95
2022-07-27T02:57:41.200Z,1.02
2022-07-27T03:00:12.119Z,1.50
2022-07-27T03:02:41.896Z,0.95
2022-07-27T03:05:11.561Z,1.20
2022-07-27T03:07:39.869Z,1.20
2022-07-27T03:10:08.865Z,0.80
2022-07-27T03:12:36.803Z,1.08
2022-07-27T03:15:05.377Z,1.27
2022-07-27T03:17:33.878Z,1.50
2022-07-27T03:20:03.382Z,1.13
2022-07-27T03:22:32.634Z,1.15
2022-07-27T03:25:00.828Z,1.10
2022-07-27T03:27:29.363Z,1.20
2022-07-27T03:29:57.564Z,1.20
2022-07-27T03:32:25.491Z,1.30
2022-07-27T03:34:53.514Z,1.10
2022-07-27T03:37:22.820Z,1.00
2022-07-27T03:39:50.789Z,0.88
2022-07-27T03:42:18.775Z,1.20
2022-07-27T03:44:46.698Z,1.40
2022-07-27T03:47:14.618Z,1.10
2022-07-27T03:49:42.548Z,1.13
2022-07-27T03:52:15.711Z,1.13
2022-07-27T03:54:47.587Z,1.23
2022-07-27T03:57:15.846Z,1.40
2022-07-27T03:59:43.826Z,1.25
2022-07-27T04:02:11.877Z,1.60
2022-07-27T04:04:39.895Z,1.30
2022-07-27T04:07:08.115Z,1.20
2022-07-27T04:09:37.589Z,1.08
2022-07-27T04:12:09.351Z,1.00
2022-07-27T04:14:37.294Z,1.17
2022-07-27T04:17:05.341Z,1.00
2022-07-27T04:19:33.306Z,1.17
2022-07-27T04:22:01.201Z,1.10
2022-07-27T04:24:29.536Z,1.17
2022-07-27T04:26:57.515Z,0.90
2022-07-27T04:29:26.763Z,1.20
2022-07-27T04:31:54.751Z,1.15
2022-07-27T04:34:22.736Z,1.25
2022-07-27T04:36:51.362Z,1.42
2022-07-27T04:39:19.330Z,1.13
2022-07-27T04:41:47.234Z,1.45
2022-07-27T04:44:15.250Z,1.40
2022-07-27T04:46:44.550Z,1.27
2022-07-27T04:49:13.007Z,1.23
2022-07-27T04:51:43.963Z,1.40
2022-07-27T04:54:12.408Z,1.50
2022-07-27T04:56:40.353Z,1.33
2022-07-27T04:59:08.398Z,1.40
2022-07-27T05:01:37.037Z,1.30
2022-07-27T05:04:06.870Z,1.65
2022-07-27T05:06:34.944Z,1.60
2022-07-27T05:09:02.910Z,1.67
2022-07-27T05:11:30.913Z,1.40
2022-07-27T05:13:58.888Z,1.35
2022-07-27T05:16:28.966Z,1.35
2022-07-27T05:18:57.408Z,1.38
2022-07-27T05:21:27.357Z,1.58
2022-07-27T05:23:55.675Z,1.52
2022-07-27T05:26:23.998Z,1.40
2022-07-27T05:28:51.998Z,1.48
2022-07-27T05:31:20.213Z,1.48
2022-07-27T05:33:50.549Z,1.48
2022-07-27T05:36:20.368Z,1.40
2022-07-27T05:38:49.665Z,1.50
2022-07-27T05:41:22.802Z,1.50
2022-07-27T05:43:50.702Z,1.55
2022-07-27T05:46:18.883Z,1.40
2022-07-27T05:48:47.184Z,1.40
2022-07-27T05:51:15.261Z,1.40
2022-07-27T05:53:43.178Z,1.70
2022-07-27T05:56:12.424Z,1.80
2022-07-27T05:58:40.464Z,2.10
2022-07-27T06:01:08.433Z,1.80
2022-07-27T06:03:37.755Z,1.90
2022-07-27T06:06:23.499Z,2.00
2022-07-27T06:08:51.523Z,1.95
2022-07-27T06:11:20.883Z,2.10
2022-07-27T06:13:50.605Z,1.90
2022-07-27T06:16:18.989Z,1.80
2022-07-27T06:18:46.912Z,1.90
2022-07-27T06:21:14.857Z,1.75
2022-07-27T06:23:43.309Z,1.90
2022-07-27T06:26:11.271Z,1.70
2022-07-27T06:28:40.549Z,2.10
2022-07-27T06:31:08.516Z,2.03
2022-07-27T06:33:37.227Z,1.83
2022-07-27T06:36:05.754Z,1.60
2022-07-27T06:38:33.751Z,1.88
2022-07-27T06:41:02.256Z,2.05
2022-07-27T06:43:33.129Z,1.65
2022-07-27T06:46:03.297Z,1.80
2022-07-27T06:48:31.468Z,1.52
2022-07-27T06:50:59.353Z,1.85
2022-07-27T06:53:28.436Z,1.80
2022-07-27T06:56:04.913Z,1.75
2022-07-27T06:58:33.168Z,1.77
2022-07-27T07:01:03.841Z,1.63
2022-07-27T07:03:32.228Z,1.65
2022-07-27T07:06:00.268Z,1.38
2022-07-27T07:08:28.195Z,1.45
2022-07-27T07:10:56.671Z,2.25
2022-07-27T07:13:24.665Z,1.60
2022-07-27T07:15:52.771Z,1.45
2022-07-27T07:18:22.034Z,1.80
2022-07-27T07:20:49.991Z,1.38
2022-07-27T07:23:17.902Z,1.70
2022-07-27T07:25:45.792Z,1.77
2022-07-27T07:28:13.691Z,1.80
2022-07-27T07:30:41.605Z,1.70
2022-07-27T07:33:09.637Z,1.60
2022-07-27T07:35:38.879Z,1.67
2022-07-27T07:38:26.764Z,1.85
2022-07-27T07:40:54.663Z,1.73
2022-07-27T07:43:22.570Z,1.55
2022-07-27T07:45:52.210Z,1.38
2022-07-27T07:48:22.502Z,1.30
2022-07-27T07:50:53.994Z,1.50
2022-07-27T07:53:22.995Z,1.25
2022-07-27T07:55:51.251Z,1.35
2022-07-27T07:58:19.909Z,1.10
2022-07-27T08:00:47.968Z,1.00
2022-07-27T08:03:16.291Z,1.58
2022-07-27T08:05:44.648Z,1.15
2022-07-27T08:08:14.111Z,1.63
2022-07-27T08:10:42.046Z,1.55
2022-07-27T08:13:10.047Z,1.50
2022-07-27T08:15:37.969Z,1.45
2022-07-27T08:18:06.853Z,1.40
2022-07-27T08:20:35.198Z,1.30
2022-07-27T08:23:03.553Z,1.50
2022-07-27T08:25:33.573Z,1.40
2022-07-27T08:28:02.705Z,1.63
2022-07-27T08:30:32.415Z,1.48
2022-07-27T08:33:02.499Z,1.40
2022-07-27T08:35:31.968Z,1.30
2022-07-27T08:38:00.439Z,1.10
2022-07-27T08:40:39.505Z,1.08
2022-07-27T08:43:11.507Z,1.30
2022-07-27T08:45:41.545Z,1.00
2022-07-27T08:48:14.377Z,1.42
2022-07-27T08:50:43.268Z,1.05
2022-07-27T08:53:14.165Z,1.30
2022-07-27T08:55:44.971Z,1.10
2022-07-27T08:58:15.644Z,1.10
2022-07-27T09:00:45.205Z,1.17
2022-07-27T09:03:18.962Z,1.20
2022-07-27T09:05:49.820Z,1.02
2022-07-27T09:08:21.442Z,0.85
2022-07-27T09:10:49.728Z,1.00
2022-07-27T09:13:21.161Z,1.23
2022-07-27T09:16:16.170Z,1.17
2022-07-27T09:18:40.043Z,1.13
2022-07-27T09:21:13.760Z,0.85
2022-07-27T09:23:43.579Z,1.15
2022-07-27T09:26:30.364Z,1.10
2022-07-27T09:29:02.300Z,1.00
2022-07-27T09:31:31.096Z,1.07
2022-07-27T09:34:01.340Z,1.23
2022-07-27T09:36:30.590Z,1.10
2022-07-27T09:39:11.287Z,1.02
2022-07-27T09:41:43.523Z,1.10
2022-07-27T09:47:01.166Z,1.00
2022-07-27T09:49:31.725Z,1.10
2022-07-27T09:52:02.018Z,1.10
2022-07-27T09:54:43.151Z,1.00
2022-07-27T09:57:11.394Z,1.25
2022-07-27T09:59:41.009Z,1.17
2022-07-27T10:02:09.442Z,1.02
2022-07-27T10:04:37.545Z,1.45
2022-07-27T10:07:09.485Z,1.50
2022-07-27T10:09:41.028Z,1.17
2022-07-27T10:12:09.805Z,1.20
2022-07-27T10:14:37.739Z,1.10
2022-07-27T10:17:09.682Z,0.73
2022-07-27T10:22:10.198Z,1.05
2022-07-27T10:24:38.091Z,0.88
2022-07-27T10:27:28.036Z,1.10
2022-07-27T10:29:57.582Z,0.85
2022-07-27T10:32:31.033Z,1.08
2022-07-27T10:35:00.102Z,1.27
2022-07-27T10:37:29.539Z,0.90
2022-07-27T10:40:13.358Z,1.10
2022-07-27T10:42:41.556Z,0.95
2022-07-27T10:45:11.288Z,1.10
2022-07-27T10:47:44.660Z,0.95
2022-07-27T10:50:24.884Z,1.00
2022-07-27T10:52:55.068Z,0.93
2022-07-27T10:55:42.693Z,0.93
2022-07-27T10:58:51.352Z,1.02
2022-07-27T11:01:23.794Z,0.82
2022-07-27T11:03:53.692Z,1.08
2022-07-27T11:07:04.608Z,1.10
2022-07-27T11:12:05.220Z,1.08
2022-07-27T11:14:43.980Z,0.90
2022-07-27T11:20:02.572Z,0.90
2022-07-27T11:22:53.741Z,0.80
2022-07-27T11:25:19.728Z,0.93
2022-07-27T11:27:49.455Z,0.90
2022-07-27T11:30:25.062Z,0.80
2022-07-27T11:32:53.619Z,1.00
2022-07-27T11:35:23.567Z,0.90
2022-07-27T11:38:07.577Z,0.90
2022-07-27T11:40:56.789Z,0.73
2022-07-27T11:43:39.177Z,1.05
2022-07-27T11:46:16.263Z,0.98
2022-07-27T11:49:06.663Z,1.02
2022-07-27T11:51:38.990Z,0.88
2022-07-27T11:54:09.042Z,1.27
2022-07-27T11:56:38.916Z,1.00
2022-07-27T11:59:12.514Z,1.08
2022-07-27T12:01:42.816Z,0.80
2022-07-27T12:04:14.035Z,1.05
2022-07-27T12:06:47.261Z,1.05
2022-07-27T12:09:17.178Z,1.30
2022-07-27T12:11:51.282Z,1.20
2022-07-27T12:14:20.151Z,1.08
2022-07-27T12:16:48.075Z,1.05
2022-07-27T12:19:23.932Z,1.15
2022-07-27T12:21:56.033Z,1.20
2022-07-27T12:27:07.040Z,1.10
2022-07-27T12:29:54.765Z,0.80
2022-07-27T12:32:22.858Z,1.20
2022-07-27T12:34:51.000Z,0.90
2022-07-27T12:37:20.339Z,1.20
2022-07-27T12:39:49.143Z,1.10
2022-07-27T12:42:17.223Z,1.20
2022-07-27T12:44:47.080Z,0.77
2022-07-27T12:47:32.409Z,1.00
2022-07-27T12:50:03.201Z,1.15
2022-07-27T12:52:33.536Z,1.05
2022-07-27T12:55:01.935Z,1.00
2022-07-27T12:57:53.890Z,0.90
2022-07-27T13:00:20.152Z,1.00
2022-07-27T13:02:48.129Z,1.27
2022-07-27T13:05:16.747Z,0.90
2022-07-27T13:07:47.777Z,0.90
2022-07-27T13:10:18.811Z,0.90
2022-07-27T13:12:48.075Z,0.90
2022-07-27T13:15:16.719Z,1.02
2022-07-27T13:17:46.175Z,0.98
2022-07-27T13:20:15.508Z,1.08
2022-07-27T13:22:45.548Z,0.90
2022-07-27T13:25:16.165Z,1.13
2022-07-27T13:27:45.982Z,1.35
2022-07-27T13:30:16.124Z,1.20
2022-07-27T13:32:45.170Z,1.15
2022-07-27T13:35:14.009Z,1.10
2022-07-27T13:37:42.427Z,0.93
2022-07-27T13:40:12.631Z,1.40
2022-07-27T13:42:40.558Z,1.20
2022-07-27T13:45:11.317Z,1.00
2022-07-27T13:47:41.024Z,1.70
2022-07-27T13:50:17.190Z,1.20
2022-07-27T13:52:46.627Z,1.00
2022-07-27T13:55:16.607Z,1.20
2022-07-27T13:57:45.170Z,1.10
2022-07-27T14:00:14.028Z,1.00
2022-07-27T14:02:42.213Z,1.30
2022-07-27T14:05:13.157Z,1.20
2022-07-27T14:10:28.838Z,1.23
2022-07-27T14:13:08.243Z,1.25
2022-07-27T14:15:50.883Z,1.05
2022-07-27T14:18:26.941Z,1.30
2022-07-27T14:20:55.377Z,1.10
2022-07-27T14:23:23.943Z,1.00
2022-07-27T14:25:52.478Z,1.10
2022-07-27T14:28:22.061Z,1.10
2022-07-27T14:30:50.258Z,1.00
2022-07-27T14:33:18.860Z,1.23
2022-07-27T14:35:47.149Z,1.20
2022-07-27T14:38:28.322Z,0.93
2022-07-27T14:40:59.418Z,1.25
2022-07-27T14:43:29.741Z,1.00
2022-07-27T14:45:57.744Z,1.25
2022-07-27T14:48:42.685Z,0.95
2022-07-27T14:51:13.614Z,1.00
2022-07-27T14:53:41.561Z,1.30
2022-07-27T14:56:09.523Z,1.13
2022-07-27T14:58:38.787Z,1.00
2022-07-27T15:01:06.883Z,1.05
2022-07-27T15:03:34.902Z,0.80
2022-07-27T15:06:03.169Z,1.00
2022-07-27T15:08:31.158Z,2.08
2022-07-27T15:10:59.292Z,0.80
2022-07-27T15:13:27.347Z,1.02
2022-07-27T15:15:58.023Z,1.10
2022-07-27T15:18:26.172Z,1.00
2022-07-27T15:20:54.098Z,0.88
2022-07-27T15:23:22.322Z,1.00
2022-07-27T15:25:50.590Z,1.00
2022-07-27T15:28:18.488Z,0.93
2022-07-27T15:30:46.429Z,0.82
2022-07-27T15:33:15.758Z,1.10
2022-07-27T15:35:43.685Z,1.00
2022-07-27T15:38:11.645Z,1.02
2022-07-27T15:40:41.556Z,0.98
2022-07-27T15:43:12.114Z,1.10
2022-07-27T15:45:41.557Z,1.00
2022-07-27T15:48:11.283Z,1.05
2022-07-27T15:50:42.661Z,0.98
2022-07-27T15:53:11.977Z,1.20
2022-07-27T15:55:39.921Z,1.05
2022-07-27T15:58:08.613Z,1.13
2022-07-27T16:00:41.048Z,0.70
2022-07-27T16:03:09.782Z,1.10
2022-07-27T16:05:37.843Z,0.98
2022-07-27T16:08:09.744Z,0.93
2022-07-27T16:10:38.713Z,1.15
2022-07-27T16:13:07.016Z,0.95
2022-07-27T16:15:52.974Z,0.95
2022-07-27T16:18:20.976Z,0.82
2022-07-27T16:20:48.898Z,0.90
2022-07-27T16:23:21.090Z,1.08
2022-07-27T16:26:08.210Z,1.05
2022-07-27T16:28:39.612Z,1.00
2022-07-27T16:31:10.282Z,0.90
2022-07-27T16:33:38.747Z,0.98
2022-07-27T16:36:08.262Z,1.00
2022-07-27T16:38:39.299Z,1.10
2022-07-27T16:41:19.213Z,1.10
2022-07-27T16:43:47.664Z,1.20
2022-07-27T16:46:16.049Z,1.40
2022-07-27T16:48:44.167Z,1.50
2022-07-27T16:51:14.408Z,1.10
2022-07-27T16:53:47.961Z,0.90
2022-07-27T16:56:15.990Z,1.10
2022-07-27T16:58:44.449Z,0.93
2022-07-27T17:01:22.061Z,0.90
2022-07-27T17:03:55.268Z,1.08
2022-07-27T17:06:23.283Z,0.93
2022-07-27T17:08:52.754Z,0.90
2022-07-27T17:11:22.344Z,1.00
2022-07-27T17:13:58.836Z,1.17
2022-07-27T17:16:27.809Z,0.98
2022-07-27T17:18:56.076Z,1.23
2022-07-27T17:21:24.051Z,1.05
2022-07-27T17:23:53.298Z,0.90
2022-07-27T17:26:24.411Z,1.15
2022-07-27T17:31:22.123Z,1.00
2022-07-27T17:33:50.495Z,1.05
2022-07-27T17:36:18.533Z,0.98
2022-07-27T17:38:48.227Z,1.10
2022-07-27T17:41:24.034Z,0.98
2022-07-27T17:43:53.242Z,1.40
2022-07-27T17:46:21.923Z,1.13
2022-07-27T17:48:50.055Z,1.10
2022-07-27T17:51:18.099Z,1.40
2022-07-27T17:53:46.583Z,1.30
2022-07-27T17:56:14.506Z,1.27
2022-07-27T17:58:43.833Z,1.05
2022-07-27T18:01:11.785Z,1.17
2022-07-27T18:03:40.209Z,0.90
2022-07-27T18:06:08.595Z,1.00
2022-07-27T18:08:36.981Z,1.00
2022-07-27T18:11:05.415Z,1.08
2022-07-27T18:13:38.904Z,0.95
2022-07-27T18:16:11.599Z,1.15
2022-07-27T18:18:40.601Z,1.00
2022-07-27T18:21:10.556Z,1.05
2022-07-27T18:23:38.667Z,1.00
2022-07-27T18:26:07.082Z,1.10
2022-07-27T18:28:39.449Z,1.00
2022-07-27T18:31:12.408Z,0.80
2022-07-27T18:33:45.694Z,1.10
2022-07-27T18:36:13.721Z,1.35
2022-07-27T18:38:41.695Z,1.02
2022-07-27T18:41:09.957Z,1.25
2022-07-27T18:43:38.075Z,1.10
2022-07-27T18:46:06.134Z,1.10
2022-07-27T18:48:35.491Z,1.23
2022-07-27T18:51:03.462Z,0.90
2022-07-27T18:53:31.415Z,1.30
2022-07-27T18:55:59.399Z,1.30
2022-07-27T18:58:27.672Z,1.20
2022-07-27T19:00:55.794Z,1.40
2022-07-27T19:03:24.817Z,1.38
2022-07-27T19:05:57.526Z,1.27
2022-07-27T19:08:26.015Z,1.25
2022-07-27T19:10:54.081Z,1.40
2022-07-27T19:13:22.138Z,1.30
2022-07-27T19:15:50.245Z,1.08
2022-07-27T19:18:18.196Z,1.13
2022-07-27T19:20:46.222Z,1.20
2022-07-27T19:23:15.532Z,1.30
2022-07-27T19:25:45.156Z,1.70
2022-07-27T19:28:16.806Z,2.08
2022-07-27T19:30:44.778Z,1.77
2022-07-27T19:33:12.829Z,1.77
2022-07-27T19:35:40.817Z,1.80
2022-07-27T19:38:09.445Z,1.60
2022-07-27T19:40:44.628Z,1.40
2022-07-27T19:43:13.361Z,1.10
2022-07-27T19:45:42.020Z,1.30
2022-07-27T19:48:10.093Z,1.42
2022-07-27T19:50:38.168Z,1.30
2022-07-27T19:53:06.225Z,1.30
2022-07-27T19:55:34.602Z,1.10
2022-07-27T19:58:03.915Z,1.50
2022-07-27T20:00:32.230Z,1.42
2022-07-27T20:03:00.249Z,1.60
2022-07-27T20:05:28.426Z,1.60
2022-07-27T20:07:56.340Z,1.58
2022-07-27T20:10:25.364Z,1.45
2022-07-27T20:12:53.667Z,1.63
2022-07-27T20:15:23.068Z,1.38
2022-07-27T20:17:51.289Z,1.70
2022-07-27T20:20:19.566Z,1.60
2022-07-27T20:22:47.537Z,1.20
2022-07-27T20:25:16.088Z,1.60
2022-07-27T20:27:44.266Z,1.40
2022-07-27T20:30:14.506Z,1.45
2022-07-27T20:32:44.249Z,1.33
2022-07-27T20:35:12.242Z,1.35
2022-07-27T20:37:40.367Z,1.42
2022-07-27T20:40:11.464Z,1.38
2022-07-27T20:42:40.388Z,1.27
2022-07-27T20:45:11.380Z,1.20
2022-07-27T20:47:39.872Z,1.30
2022-07-27T20:50:11.471Z,1.17
2022-07-27T20:52:39.624Z,1.52
2022-07-27T20:55:08.687Z,1.38
2022-07-27T20:57:36.840Z,1.52
2022-07-27T21:00:07.562Z,1.52
2022-07-27T21:02:35.709Z,1.50
2022-07-27T21:05:03.832Z,1.40
2022-07-27T21:07:33.203Z,1.40
2022-07-27T21:10:01.131Z,1.20
2022-07-27T21:12:33.806Z,1.13
2022-07-27T21:15:08.636Z,1.30
2022-07-27T21:17:41.235Z,1.45
2022-07-27T21:20:10.409Z,1.25
2022-07-27T21:22:39.826Z,1.40
2022-07-27T21:25:11.207Z,1.50
2022-07-27T21:27:42.249Z,1.50
2022-07-27T21:30:16.216Z,1.45
2022-07-27T21:32:44.103Z,1.60
2022-07-27T21:35:15.156Z,1.67
2022-07-27T21:37:45.789Z,1.83
2022-07-27T21:40:16.976Z,1.70
2022-07-27T21:42:44.883Z,1.38
2022-07-27T21:45:13.458Z,1.70
2022-07-27T21:47:43.722Z,1.40
2022-07-27T21:50:12.234Z,1.75
2022-07-27T21:52:40.280Z,1.77
2022-07-27T21:55:10.587Z,1.50
2022-07-27T21:57:38.523Z,1.63
2022-07-27T22:00:08.436Z,1.50
2022-07-27T22:02:38.808Z,1.50
2022-07-27T22:05:07.575Z,1.40
2022-07-27T22:07:37.797Z,1.50
2022-07-27T22:10:08.831Z,1.35
2022-07-27T22:12:38.144Z,1.38
2022-07-27T22:15:09.953Z,1.58
2022-07-27T22:17:50.114Z,1.35
2022-07-27T22:20:21.026Z,1.48
2022-07-27T22:22:52.055Z,1.63
2022-07-27T22:25:25.216Z,1.42
2022-07-27T22:27:54.747Z,1.40
2022-07-27T22:30:25.144Z,1.40
2022-07-27T22:32:53.518Z,1.45
2022-07-27T22:35:21.865Z,1.80
2022-07-27T22:37:52.708Z,1.60
2022-07-27T22:40:22.338Z,1.40
2022-07-27T22:42:50.294Z,1.42
2022-07-27T22:45:20.188Z,1.30
2022-07-27T22:47:50.748Z,1.60
2022-07-27T22:50:20.307Z,1.50
2022-07-27T22:52:48.613Z,1.50
2022-07-27T22:55:17.302Z,1.27
2022-07-27T22:57:48.475Z,1.25
2022-07-27T23:00:18.527Z,1.30
2022-07-27T23:02:47.790Z,1.05
2022-07-27T23:05:16.219Z,1.33
2022-07-27T23:07:44.215Z,1.40
2022-07-27T23:10:32.462Z,1.30
2022-07-27T23:13:00.451Z,1.30
2022-07-27T23:15:28.554Z,1.40
2022-07-27T23:17:57.827Z,1.20
2022-07-27T23:20:25.864Z,1.10
2022-07-27T23:22:54.352Z,1.20
2022-07-27T23:25:24.796Z,1.20
2022-07-27T23:28:04.743Z,1.20
2022-07-27T23:30:32.727Z,1.20
2022-07-27T23:33:02.013Z,1.20
2022-07-27T23:35:30.187Z,1.40
2022-07-27T23:37:58.183Z,1.38
2022-07-27T23:40:26.707Z,1.27
2022-07-27T23:42:54.691Z,1.30
2022-07-27T23:45:22.891Z,1.20
2022-07-27T23:47:50.801Z,1.20
2022-07-27T23:50:20.126Z,1.33
2022-07-27T23:52:48.046Z,0.98
2022-07-27T23:55:16.082Z,1.58
2022-07-27T23:57:44.026Z,1.20
